Time;durP1;ratioP1;P1;durP2;ratioP2;P2;SDS_P1;SDS_P2;PMS_P1;PMS_P2;Temp;Humidity;BMP_temperature;BMP_pressure;BME280_temperature;BME280_humidity;BME280_pressure;Samples;Min_cycle;Max_cycle;Signal;HPM_P1;HPM_P2
2021/09/13 00:00:41;;;;;;;4.60;3.80;;;16.60;92.60;;;;;;5049795;28;20484;-67
2021/09/13 00:03:10;;;;;;;7.00;4.47;;;16.60;92.90;;;;;;5051294;28;20463;-68
2021/09/13 00:05:37;;;;;;;6.43;5.37;;;16.60;93.10;;;;;;5034248;28;20908;-68
2021/09/13 00:08:09;;;;;;;6.33;4.90;;;16.60;93.50;;;;;;5035574;28;20437;-67
2021/09/13 00:10:37;;;;;;;9.00;4.70;;;16.60;93.50;;;;;;5054446;28;20441;-67
2021/09/13 00:13:06;;;;;;;5.47;4.80;;;16.60;93.60;;;;;;5052722;28;20437;-67
2021/09/13 00:15:38;;;;;;;10.90;5.60;;;16.50;93.40;;;;;;5034379;28;20438;-67
2021/09/13 00:18:05;;;;;;;5.73;4.63;;;16.40;93.60;;;;;;5034660;28;20469;-68
2021/09/13 00:20:35;;;;;;;6.00;4.60;;;16.40;93.70;;;;;;5054068;28;20486;-68
2021/09/13 00:23:10;;;;;;;7.97;5.57;;;16.30;93.70;;;;;;5053334;28;20433;-68
2021/09/13 00:25:40;;;;;;;7.10;4.63;;;16.30;93.70;;;;;;5034239;28;20442;-67
2021/09/13 00:28:12;;;;;;;5.30;4.63;;;16.30;93.80;;;;;;5034956;28;20527;-67
2021/09/13 00:30:40;;;;;;;5.33;4.83;;;16.20;94.40;;;;;;5053806;28;20445;-67
2021/09/13 00:33:10;;;;;;;9.33;6.10;;;16.10;94.40;;;;;;5052690;28;20441;-67
2021/09/13 00:35:40;;;;;;;11.87;6.97;;;16.10;94.40;;;;;;5033881;28;20502;-67
2021/09/13 00:38:15;;;;;;;8.50;6.63;;;16.10;94.20;;;;;;5034421;28;20533;-67
2021/09/13 00:40:47;;;;;;;8.97;6.07;;;16.10;94.10;;;;;;5053733;28;20484;-67
2021/09/13 00:43:17;;;;;;;4.97;4.37;;;16.00;94.30;;;;;;5052200;28;20494;-67
2021/09/13 00:45:45;;;;;;;5.93;5.03;;;16.10;94.30;;;;;;5033888;28;20449;-67
2021/09/13 00:48:17;;;;;;;5.83;4.97;;;16.10;94.30;;;;;;5034689;28;20492;-67
2021/09/13 00:50:47;;;;;;;5.97;4.90;;;16.00;94.20;;;;;;5053660;28;20441;-67
2021/09/13 00:53:17;;;;;;;5.80;5.30;;;16.00;94.40;;;;;;5051200;28;20491;-68
2021/09/13 00:55:47;;;;;;;5.30;4.80;;;16.00;94.60;;;;;;5033552;28;20470;-67
2021/09/13 00:58:17;;;;;;;7.30;5.23;;;16.00;94.60;;;;;;5046917;28;20552;-67
2021/09/13 01:00:49;;;;;;;4.50;3.80;;;16.00;95.10;;;;;;5033438;28;20486;-67
2021/09/13 01:03:19;;;;;;;4.90;4.10;;;16.00;94.70;;;;;;5048252;28;20441;-68
2021/09/13 01:05:50;;;;;;;5.90;5.00;;;16.00;94.40;;;;;;5053010;28;20846;-69
2021/09/13 01:08:19;;;;;;;5.43;4.73;;;16.00;94.30;;;;;;5039414;28;20442;-67
2021/09/13 01:10:49;;;;;;;5.97;5.37;;;16.00;94.30;;;;;;5053120;28;20460;-67
2021/09/13 01:13:18;;;;;;;5.63;4.60;;;16.00;94.20;;;;;;5038855;28;20450;-67
2021/09/13 01:15:49;;;;;;;5.97;4.50;;;16.00;94.00;;;;;;5033246;28;20434;-67
2021/09/13 01:18:24;;;;;;;6.20;4.87;;;16.00;93.80;;;;;;5034424;28;20469;-67
2021/09/13 01:20:58;;;;;;;4.80;4.23;;;16.00;93.90;;;;;;5053106;28;20841;-68
2021/09/13 01:23:31;;;;;;;4.93;4.33;;;16.00;93.60;;;;;;5038927;28;20437;-67
2021/09/13 01:26:05;;;;;;;4.53;3.90;;;16.00;93.40;;;;;;5033066;28;20445;-68
2021/09/13 01:28:40;;;;;;;4.53;4.03;;;15.90;93.20;;;;;;5040142;28;20442;-67
2021/09/13 01:31:08;;;;;;;5.43;3.80;;;15.90;93.20;;;;;;5044582;28;21012;-67
2021/09/13 01:33:37;;;;;;;5.07;4.57;;;15.90;93.10;;;;;;5039369;28;20478;-67
2021/09/13 01:36:07;;;;;;;4.30;3.70;;;15.90;93.10;;;;;;5052724;28;20498;-67
2021/09/13 01:38:41;;;;;;;6.00;4.57;;;15.80;93.10;;;;;;5046130;28;20445;-67
2021/09/13 01:41:10;;;;;;;5.20;3.93;;;15.90;93.00;;;;;;5032820;28;20490;-67
2021/09/13 01:43:42;;;;;;;3.67;3.20;;;15.80;92.80;;;;;;5038128;28;20437;-67
2021/09/13 01:46:10;;;;;;;4.13;3.63;;;15.70;92.70;;;;;;5052565;28;20869;-67
2021/09/13 01:48:42;;;;;;;5.37;3.57;;;15.70;92.60;;;;;;5046087;28;20433;-67
2021/09/13 01:51:13;;;;;;;5.80;3.90;;;15.70;93.00;;;;;;5032740;28;20461;-67
2021/09/13 01:53:42;;;;;;;6.60;3.63;;;15.60;93.50;;;;;;5037844;28;20989;-67
2021/09/13 01:56:11;;;;;;;4.83;3.63;;;15.60;93.30;;;;;;5052509;28;20432;-67
2021/09/13 01:58:39;;;;;;;4.57;2.50;;;15.50;93.50;;;;;;5046004;28;20470;-67
2021/09/13 02:01:15;;;;;;;3.80;3.23;;;15.50;93.80;;;;;;5032373;28;20525;-68
2021/09/13 02:03:43;;;;;;;3.80;3.50;;;15.50;93.50;;;;;;5037535;28;20470;-67
2021/09/13 02:06:15;;;;;;;6.10;4.30;;;15.50;93.40;;;;;;5052138;28;20441;-67
2021/09/13 02:08:49;;;;;;;4.53;4.03;;;15.40;93.50;;;;;;5045948;28;20433;-67
2021/09/13 02:11:19;;;;;;;5.73;5.17;;;15.40;93.60;;;;;;5032436;28;20437;-67
2021/09/13 02:13:46;;;;;;;5.50;4.47;;;15.40;93.80;;;;;;5038081;28;20516;-67
2021/09/13 02:16:14;;;;;;;10.50;5.77;;;15.30;93.90;;;;;;5052132;28;20448;-67
2021/09/13 02:18:48;;;;;;;9.20;6.50;;;15.30;94.00;;;;;;5038320;28;20466;-68
2021/09/13 02:21:18;;;;;;;11.27;5.90;;;15.30;94.10;;;;;;5041580;28;20909;-68
2021/09/13 02:23:55;;;;;;;10.73;6.73;;;15.30;94.10;;;;;;5032127;28;20426;-67
2021/09/13 02:26:22;;;;;;;12.83;7.63;;;15.20;94.10;;;;;;5046693;28;20444;-67
2021/09/13 02:28:56;;;;;;;10.30;6.60;;;15.20;94.30;;;;;;5050290;28;20441;-67
2021/09/13 02:31:24;;;;;;;8.97;5.90;;;15.10;94.40;;;;;;5051938;28;20437;-67
2021/09/13 02:33:56;;;;;;;9.70;5.03;;;15.10;94.60;;;;;;5040612;28;20528;-67
2021/09/13 02:36:25;;;;;;;7.50;5.87;;;15.10;94.70;;;;;;5032318;28;20460;-67
2021/09/13 02:39:00;;;;;;;6.17;4.90;;;15.10;94.80;;;;;;5041445;28;20939;-67
2021/09/13 02:41:29;;;;;;;6.23;5.13;;;15.20;94.90;;;;;;5051838;28;20520;-68
2021/09/13 02:43:59;;;;;;;7.07;4.87;;;15.20;94.90;;;;;;5041386;28;20533;-67
2021/09/13 02:46:28;;;;;;;6.30;4.80;;;15.20;94.70;;;;;;5031834;28;20448;-67
2021/09/13 02:49:00;;;;;;;5.17;4.43;;;15.20;94.30;;;;;;5041756;28;20526;-67
2021/09/13 02:51:29;;;;;;;4.70;3.70;;;15.10;94.00;;;;;;5051856;28;20444;-68
2021/09/13 02:53:57;;;;;;;5.17;3.47;;;15.10;94.10;;;;;;5041529;28;20449;-67
2021/09/13 02:56:33;;;;;;;6.77;5.43;;;15.20;94.50;;;;;;5032026;28;20474;-67
2021/09/13 02:59:05;;;;;;;7.73;5.10;;;15.20;94.20;;;;;;5041947;28;20432;-67
2021/09/13 03:01:39;;;;;;;8.90;5.50;;;15.20;94.40;;;;;;5051790;28;20492;-67
2021/09/13 03:04:11;;;;;;;7.93;5.30;;;15.20;94.60;;;;;;5040624;28;20767;-68
2021/09/13 03:06:39;;;;;;;9.53;5.50;;;15.30;94.60;;;;;;5031951;28;20801;-67
2021/09/13 03:09:15;;;;;;;8.40;6.37;;;15.30;94.50;;;;;;5042490;28;20441;-68
2021/09/13 03:11:47;;;;;;;5.37;4.70;;;15.40;94.50;;;;;;5051959;28;20440;-67
2021/09/13 03:14:17;;;;;;;8.43;6.17;;;15.40;94.50;;;;;;5039738;28;20833;-67
2021/09/13 03:16:51;;;;;;;6.13;5.53;;;15.50;94.60;;;;;;5034260;28;20810;-67
2021/09/13 03:19:19;;;;;;;8.63;5.17;;;15.50;94.50;;;;;;5047786;28;20502;-68
2021/09/13 03:21:51;;;;;;;6.60;4.80;;;15.50;94.50;;;;;;5055306;28;20480;-67
2021/09/13 03:24:20;;;;;;;10.60;6.10;;;15.50;94.60;;;;;;5043023;28;20434;-67
2021/09/13 03:26:52;;;;;;;12.57;7.57;;;15.60;94.90;;;;;;5035093;28;21015;-67
2021/09/13 03:29:25;;;;;;;10.90;6.80;;;15.60;94.80;;;;;;5046852;28;20926;-68
2021/09/13 03:31:52;;;;;;;7.90;6.67;;;15.60;94.90;;;;;;5054700;28;20440;-67
2021/09/13 03:34:34;;;;;;;9.20;6.60;;;15.70;95.00;;;;;;5043339;28;20516;-67
2021/09/13 03:37:03;;;;;;;8.60;6.33;;;15.70;94.90;;;;;;5035229;28;20519;-66
2021/09/13 03:39:40;;;;;;;8.07;7.20;;;15.70;94.70;;;;;;5035856;28;20452;-66
2021/09/13 03:42:10;;;;;;;11.03;8.17;;;15.70;94.70;;;;;;5045692;28;20472;-66
2021/09/13 03:44:45;;;;;;;11.20;8.00;;;15.70;94.80;;;;;;5054929;28;21027;-66
2021/09/13 03:47:18;;;;;;;16.30;9.53;;;15.70;95.00;;;;;;5043552;28;20437;-66
2021/09/13 03:49:50;;;;;;;9.30;7.40;;;15.70;94.90;;;;;;5049009;28;20949;-66
2021/09/13 03:52:22;;;;;;;8.60;6.90;;;15.80;94.90;;;;;;5043533;28;20492;-66
2021/09/13 03:54:52;;;;;;;7.00;5.83;;;15.80;94.30;;;;;;5034959;28;20435;-67
2021/09/13 03:57:21;;;;;;;8.67;6.30;;;15.80;94.20;;;;;;5045056;28;20441;-68
2021/09/13 03:59:55;;;;;;;7.77;6.93;;;15.70;94.50;;;;;;5042768;28;20437;-68
2021/09/13 04:02:28;;;;;;;6.43;5.50;;;15.80;94.90;;;;;;5035144;28;20444;-69
2021/09/13 04:05:00;;;;;;;6.07;5.20;;;15.80;94.90;;;;;;5044588;28;20527;-68
2021/09/13 04:07:37;;;;;;;6.57;5.43;;;15.80;94.90;;;;;;5054801;28;20465;-68
2021/09/13 04:10:21;;;;;;;7.27;6.00;;;15.90;94.90;;;;;;5037541;28;20519;-68
2021/09/13 04:12:50;;;;;;;7.70;5.37;;;15.80;94.70;;;;;;5034932;28;20463;-68
2021/09/13 04:15:18;;;;;;;10.07;6.43;;;15.90;94.90;;;;;;5052376;28;20437;-68
2021/09/13 04:17:53;;;;;;;7.97;5.93;;;15.90;95.00;;;;;;5054464;28;20525;-68
2021/09/13 04:20:22;;;;;;;8.83;6.63;;;15.90;95.10;;;;;;5035428;28;20492;-70
2021/09/13 04:22:50;;;;;;;10.80;6.50;;;16.00;95.10;;;;;;5034822;28;20442;-68
2021/09/13 04:25:24;;;;;;;10.87;7.47;;;16.00;95.00;;;;;;5051948;28;20843;-69
2021/09/13 04:27:59;;;;;;;11.40;7.63;;;16.00;95.10;;;;;;5054301;28;20444;-68
2021/09/13 04:30:34;;;;;;;9.77;6.60;;;16.10;95.40;;;;;;5050605;28;20810;-69
2021/09/13 04:33:02;;;;;;;12.53;6.80;;;16.10;95.40;;;;;;5054245;28;20444;-68
2021/09/13 04:35:33;;;;;;;14.63;7.40;;;16.20;95.40;;;;;;5038912;28;20943;-68
2021/09/13 04:38:05;;;;;;;14.47;8.33;;;16.10;95.40;;;;;;5053214;28;20441;-68
2021/09/13 04:40:34;;;;;;;15.03;8.87;;;16.10;95.60;;;;;;5034209;28;20903;-68
2021/09/13 04:43:07;;;;;;;16.43;10.13;;;16.20;95.60;;;;;;5033878;28;20488;-68
2021/09/13 04:45:34;;;;;;;15.63;10.00;;;16.20;95.70;;;;;;5033969;28;20437;-68
2021/09/13 04:48:02;;;;;;;15.03;9.10;;;16.30;95.90;;;;;;5033877;28;20920;-69
2021/09/13 04:50:37;;;;;;;26.30;11.13;;;16.30;95.90;;;;;;5053004;28;20471;-68
2021/09/13 04:53:07;;;;;;;16.33;9.10;;;16.30;96.00;;;;;;5051537;28;20462;-69
2021/09/13 04:55:36;;;;;;;14.90;8.60;;;16.30;96.20;;;;;;5034521;28;21011;-69
2021/09/13 04:58:09;;;;;;;14.30;10.13;;;16.20;96.30;;;;;;5035005;28;20803;-69
2021/09/13 05:00:41;;;;;;;16.00;8.27;;;16.20;96.50;;;;;;5050675;28;20489;-69
2021/09/13 05:03:08;;;;;;;15.53;8.90;;;16.20;96.80;;;;;;5045942;28;20921;-69
2021/09/13 05:05:40;;;;;;;12.70;8.30;;;16.30;97.00;;;;;;5046432;28;20445;-68
2021/09/13 05:08:10;;;;;;;17.50;8.20;;;16.30;96.90;;;;;;5050365;28;20441;-68
2021/09/13 05:10:39;;;;;;;15.00;9.73;;;16.30;97.00;;;;;;5050397;28;20441;-69
2021/09/13 05:13:11;;;;;;;19.57;11.70;;;16.40;97.00;;;;;;5034046;28;20431;-68
2021/09/13 05:15:43;;;;;;;19.90;10.40;;;16.40;97.00;;;;;;5033304;28;20544;-69
2021/09/13 05:18:13;;;;;;;13.50;9.37;;;16.50;96.90;;;;;;5033316;28;20477;-68
2021/09/13 05:20:40;;;;;;;11.47;8.83;;;16.50;97.40;;;;;;5033073;28;21010;-68
2021/09/13 05:23:07;;;;;;;16.10;9.43;;;16.50;97.10;;;;;;5035709;28;20449;-68
2021/09/13 05:25:38;;;;;;;15.50;8.73;;;16.60;97.20;;;;;;5050083;28;20468;-68
2021/09/13 05:28:07;;;;;;;15.37;9.33;;;16.60;97.20;;;;;;5046263;28;20436;-68
2021/09/13 05:30:37;;;;;;;12.60;9.30;;;16.70;97.10;;;;;;5050815;28;20452;-67
2021/09/13 05:33:07;;;;;;;20.00;8.93;;;16.70;96.90;;;;;;5049685;28;20441;-68
2021/09/13 05:35:35;;;;;;;21.30;9.53;;;16.70;96.70;;;;;;5036687;28;20450;-68
2021/09/13 05:38:08;;;;;;;15.67;9.97;;;16.80;96.70;;;;;;5042043;28;20478;-68
2021/09/13 05:40:44;;;;;;;11.07;8.00;;;16.80;96.80;;;;;;5049595;28;20498;-69
2021/09/13 05:43:14;;;;;;;11.00;7.93;;;16.90;97.20;;;;;;5039354;28;20954;-68
2021/09/13 05:45:43;;;;;;;13.00;8.63;;;16.90;97.20;;;;;;5043396;28;20438;-68
2021/09/13 05:48:10;;;;;;;19.60;9.37;;;17.00;97.40;;;;;;5032406;28;20441;-68
2021/09/13 05:50:41;;;;;;;22.87;9.90;;;17.10;97.30;;;;;;5035112;28;20437;-68
2021/09/13 05:53:09;;;;;;;15.20;9.87;;;17.20;96.80;;;;;;5039656;28;20442;-68
2021/09/13 05:55:36;;;;;;;14.30;9.30;;;17.10;96.80;;;;;;5048571;28;20442;-67
2021/09/13 05:58:08;;;;;;;18.57;10.00;;;17.10;96.80;;;;;;5049553;28;20436;-67
2021/09/13 06:00:41;;;;;;;18.33;9.57;;;17.10;97.00;;;;;;5048208;28;20437;-67
2021/09/13 06:03:11;;;;;;;18.70;9.80;;;17.10;97.20;;;;;;5049707;28;20441;-68
2021/09/13 06:05:40;;;;;;;19.57;10.43;;;17.10;97.30;;;;;;5050221;28;20874;-68
2021/09/13 06:08:16;;;;;;;18.73;9.20;;;17.10;97.40;;;;;;5036858;28;20461;-68
2021/09/13 06:10:46;;;;;;;17.53;9.50;;;17.10;97.50;;;;;;5045224;28;20527;-69
2021/09/13 06:13:23;;;;;;;17.53;10.00;;;17.20;97.60;;;;;;5049500;28;20447;-68
2021/09/13 06:16:05;;;;;;;18.60;11.00;;;17.10;97.60;;;;;;5032572;28;20553;-69
2021/09/13 06:18:39;;;;;;;17.87;9.60;;;17.10;97.50;;;;;;5046215;28;20899;-68
2021/09/13 06:21:14;;;;;;;14.70;10.17;;;17.10;98.10;;;;;;5048909;28;20555;-70
2021/09/13 06:23:46;;;;;;;17.57;9.80;;;17.20;98.20;;;;;;5032062;28;20464;-68
2021/09/13 06:26:14;;;;;;;18.00;11.77;;;17.20;97.90;;;;;;5032935;28;20477;-68
2021/09/13 06:28:44;;;;;;;13.17;10.37;;;17.30;98.10;;;;;;5046780;28;21027;-68
2021/09/13 06:31:17;;;;;;;14.23;10.50;;;17.30;97.80;;;;;;5040515;28;20515;-69
2021/09/13 06:33:49;;;;;;;14.60;9.60;;;17.40;97.70;;;;;;5051836;28;20990;-67
2021/09/13 06:36:18;;;;;;;11.67;8.97;;;17.40;96.60;;;;;;5044962;28;20469;-68
2021/09/13 06:38:58;;;;;;;16.70;9.60;;;17.40;97.00;;;;;;5053050;28;20842;-68
2021/09/13 06:41:28;;;;;;;16.93;9.83;;;17.40;97.00;;;;;;5052120;28;20484;-68
2021/09/13 06:43:58;;;;;;;12.83;8.70;;;17.50;96.80;;;;;;5052556;28;20436;-68
2021/09/13 06:46:40;;;;;;;9.93;8.93;;;17.60;96.70;;;;;;5052160;28;20832;-68
2021/09/13 06:49:12;;;;;;;11.50;8.93;;;17.60;96.20;;;;;;5052539;28;20498;-68
2021/09/13 06:51:41;;;;;;;15.93;10.30;;;17.60;95.70;;;;;;5056686;28;20441;-68
2021/09/13 06:54:15;;;;;;;13.27;10.13;;;17.60;95.70;;;;;;5056286;28;20440;-69
2021/09/13 06:56:46;;;;;;;10.83;8.77;;;17.60;95.50;;;;;;5056259;28;20476;-68
2021/09/13 06:59:20;;;;;;;11.67;8.67;;;17.60;95.70;;;;;;5044080;28;20437;-68
2021/09/13 07:01:48;;;;;;;10.70;8.87;;;17.70;95.80;;;;;;5043005;28;20506;-68
2021/09/13 07:04:21;;;;;;;10.40;9.13;;;17.90;96.00;;;;;;5046786;28;20522;-68
2021/09/13 07:07:18;;;;;;;11.47;8.23;;;18.00;95.70;;;;;;5043221;28;20958;-68
2021/09/13 07:09:50;;;;;;;10.20;8.33;;;18.10;95.40;;;;;;5046217;28;20468;-68
2021/09/13 07:12:19;;;;;;;11.80;9.50;;;18.00;94.50;;;;;;5042189;28;20471;-69
2021/09/13 07:14:51;;;;;;;8.50;7.20;;;18.00;94.30;;;;;;5043477;28;20445;-69
2021/09/13 07:17:22;;;;;;;9.20;7.83;;;18.00;94.50;;;;;;5045886;28;20504;-69
2021/09/13 07:19:57;;;;;;;8.27;7.47;;;18.10;94.40;;;;;;5042777;28;20481;-67
2021/09/13 07:22:31;;;;;;;9.60;8.50;;;18.20;94.30;;;;;;5043022;28;20494;-69
2021/09/13 07:25:07;;;;;;;9.43;8.10;;;18.20;93.80;;;;;;5043617;28;20464;-68
2021/09/13 07:27:34;;;;;;;10.30;9.30;;;18.20;93.90;;;;;;5046170;28;20807;-69
2021/09/13 07:30:12;;;;;;;9.73;8.83;;;18.20;93.80;;;;;;5045545;28;20769;-68
2021/09/13 07:32:42;;;;;;;10.33;9.30;;;18.20;94.00;;;;;;5043103;28;20457;-69
2021/09/13 07:35:13;;;;;;;9.40;8.50;;;18.20;94.10;;;;;;5043449;28;20445;-68
2021/09/13 07:37:45;;;;;;;9.00;8.10;;;18.30;94.40;;;;;;5045159;28;20441;-68
2021/09/13 07:40:27;;;;;;;8.13;7.33;;;18.40;94.00;;;;;;5045752;28;20471;-68
2021/09/13 07:42:57;;;;;;;9.63;8.40;;;18.50;94.30;;;;;;5041204;28;20516;-69
2021/09/13 07:45:30;;;;;;;9.43;8.43;;;18.70;94.40;;;;;;5042985;28;20441;-68
2021/09/13 07:48:19;;;;;;;10.70;8.33;;;18.90;94.20;;;;;;5042499;28;20528;-68
2021/09/13 07:50:48;;;;;;;9.97;8.90;;;19.00;93.70;;;;;;5045200;28;20511;-69
2021/09/13 07:53:20;;;;;;;10.90;9.40;;;19.10;93.20;;;;;;5041946;28;20473;-68
2021/09/13 07:55:47;;;;;;;10.40;9.30;;;19.40;93.30;;;;;;5044259;28;20515;-69
2021/09/13 07:58:22;;;;;;;9.47;8.57;;;19.70;93.00;;;;;;5043558;28;20446;-68
2021/09/13 08:00:55;;;;;;;9.90;8.90;;;20.10;92.60;;;;;;5043377;28;20440;-68
2021/09/13 08:03:31;;;;;;;10.00;7.90;;;20.50;91.80;;;;;;5044855;28;20479;-69
2021/09/13 08:06:08;;;;;;;9.93;8.93;;;20.90;91.30;;;;;;5045174;28;20429;-69
2021/09/13 08:08:40;;;;;;;8.47;7.67;;;21.90;90.20;;;;;;5045915;28;20782;-68
2021/09/13 08:11:11;;;;;;;9.43;7.43;;;23.30;86.90;;;;;;5042372;28;20446;-69
2021/09/13 08:13:39;;;;;;;7.97;7.10;;;24.70;82.20;;;;;;5044909;28;20515;-69
2021/09/13 08:16:14;;;;;;;7.07;6.37;;;26.70;75.30;;;;;;5042334;28;20454;-69
2021/09/13 08:18:45;;;;;;;7.50;6.80;;;28.80;69.60;;;;;;5042378;28;20501;-69
2021/09/13 08:21:17;;;;;;;7.30;6.60;;;31.30;58.80;;;;;;5044686;28;20440;-69
2021/09/13 08:23:48;;;;;;;7.27;6.47;;;32.60;49.40;;;;;;5042865;28;20442;-69
2021/09/13 08:26:17;;;;;;;7.03;6.43;;;32.90;47.50;;;;;;5044435;28;20442;-69
2021/09/13 08:28:49;;;;;;;7.80;7.00;;;32.90;45.60;;;;;;5042955;28;20992;-70
2021/09/13 08:31:21;;;;;;;8.67;7.90;;;33.30;45.00;;;;;;5044261;28;20448;-68
2021/09/13 08:33:48;;;;;;;6.90;6.20;;;34.30;43.90;;;;;;5035211;28;20536;-69
2021/09/13 08:36:20;;;;;;;6.80;6.20;;;35.00;40.80;;;;;;5033691;28;20825;-69
2021/09/13 08:38:54;;;;;;;7.63;6.93;;;34.80;38.30;;;;;;5034060;28;20442;-70
2021/09/13 08:41:25;;;;;;;7.13;6.47;;;35.10;38.80;;;;;;5033706;28;20428;-70
2021/09/13 08:44:09;;;;;;;6.87;6.07;;;36.50;36.40;;;;;;5044208;28;20537;-70
2021/09/13 08:46:56;;;;;;;7.60;5.90;;;37.70;35.00;;;;;;5045360;28;20476;-71
2021/09/13 08:49:30;;;;;;;7.37;6.13;;;38.40;31.80;;;;;;5042781;28;20930;-69
2021/09/13 08:52:04;;;;;;;6.93;6.23;;;38.90;32.10;;;;;;5043156;28;20437;-69
2021/09/13 08:54:36;;;;;;;7.10;6.40;;;40.00;31.10;;;;;;5042762;28;20449;-69
2021/09/13 08:57:07;;;;;;;7.80;6.60;;;40.90;28.10;;;;;;5043836;28;20452;-69
2021/09/13 08:59:39;;;;;;;6.63;6.13;;;41.10;28.80;;;;;;5042273;28;20495;-69
2021/09/13 09:02:08;;;;;;;5.97;5.43;;;42.10;25.90;;;;;;5044266;28;20924;-69
2021/09/13 09:04:42;;;;;;;8.93;6.40;;;41.80;27.70;;;;;;5041739;28;20829;-69
2021/09/13 09:07:11;;;;;;;6.10;5.60;;;42.90;24.70;;;;;;5044536;28;20543;-69
2021/09/13 09:09:46;;;;;;;7.00;6.40;;;44.30;25.00;;;;;;5041720;28;20804;-70
2021/09/13 09:12:15;;;;;;;6.57;5.97;;;45.70;23.20;;;;;;5040645;28;20445;-69
2021/09/13 09:14:52;;;;;;;5.63;5.13;;;47.30;22.10;;;;;;5040639;28;20441;-67
2021/09/13 09:17:25;;;;;;;8.03;5.43;;;48.70;21.40;;;;;;5040791;28;20896;-69
2021/09/13 09:20:10;;;;;;;5.90;5.40;;;49.80;19.70;;;;;;5043982;28;20448;-69
2021/09/13 09:22:40;;;;;;;5.10;4.70;;;50.90;18.90;;;;;;5043540;28;21111;-69
2021/09/13 09:25:10;;;;;;;6.77;6.17;;;51.80;17.90;;;;;;5042101;28;20779;-67
2021/09/13 09:28:02;;;;;;;5.70;5.23;;;52.60;16.80;;;;;;5043106;28;20493;-67
2021/09/13 09:30:38;;;;;;;5.77;5.27;;;53.20;16.90;;;;;;5041959;28;20544;-70
2021/09/13 09:33:09;;;;;;;4.70;4.30;;;53.60;16.60;;;;;;5041191;28;20562;-67
2021/09/13 09:35:48;;;;;;;4.97;4.57;;;54.10;15.30;;;;;;5042967;28;20944;-67
2021/09/13 09:38:37;;;;;;;5.83;5.27;;;54.60;15.00;;;;;;5040517;28;20449;-67
2021/09/13 09:41:10;;;;;;;4.57;4.17;;;55.10;15.10;;;;;;5042209;28;20533;-70
2021/09/13 09:43:56;;;;;;;4.57;4.17;;;55.20;14.20;;;;;;5041423;28;20446;-68
2021/09/13 09:46:24;;;;;;;4.87;4.47;;;55.40;14.00;;;;;;5040539;28;20528;-67
2021/09/13 09:49:05;;;;;;;5.20;4.80;;;55.70;14.00;;;;;;5043865;28;20506;-67
2021/09/13 09:51:45;;;;;;;4.70;4.30;;;55.70;13.70;;;;;;5041719;28;20500;-67
2021/09/13 09:54:17;;;;;;;4.87;4.37;;;55.70;13.20;;;;;;5043021;28;20488;-68
2021/09/13 09:56:59;;;;;;;4.03;3.70;;;56.20;13.30;;;;;;5040935;28;20968;-67
2021/09/13 09:59:45;;;;;;;4.17;3.83;;;56.80;13.70;;;;;;5040615;28;20441;-68
2021/09/13 10:02:15;;;;;;;4.30;4.00;;;57.20;13.10;;;;;;5040209;28;20448;-68
2021/09/13 10:04:58;;;;;;;3.70;3.40;;;57.70;12.80;;;;;;5042723;28;20511;-68
2021/09/13 10:07:29;;;;;;;4.40;4.00;;;58.00;12.60;;;;;;5039791;28;20922;-68
2021/09/13 10:10:01;;;;;;;3.87;3.57;;;57.80;11.90;;;;;;5042974;28;20524;-68
2021/09/13 10:12:28;;;;;;;4.00;3.70;;;57.90;12.50;;;;;;5036384;28;20564;-68
2021/09/13 10:14:59;;;;;;;4.30;3.90;;;58.20;12.30;;;;;;5032857;28;20894;-67
2021/09/13 10:17:27;;;;;;;4.10;3.80;;;58.10;11.80;;;;;;5042115;28;20469;-68
2021/09/13 10:19:56;;;;;;;5.43;3.77;;;56.50;12.10;;;;;;5053093;28;20528;-67
2021/09/13 10:22:29;;;;;;;4.23;3.83;;;55.20;12.50;;;;;;5052537;28;20520;-68
2021/09/13 10:24:57;;;;;;;4.57;4.17;;;53.60;13.00;;;;;;5052307;28;20520;-67
2021/09/13 10:27:28;;;;;;;3.80;3.50;;;52.40;14.00;;;;;;5052896;28;20433;-69
2021/09/13 10:30:16;;;;;;;6.10;3.60;;;52.40;15.20;;;;;;5052959;28;20464;-70
2021/09/13 10:32:50;;;;;;;3.63;3.20;;;53.70;14.90;;;;;;5052639;28;20576;-67
2021/09/13 10:35:20;;;;;;;4.60;4.20;;;55.20;14.10;;;;;;5052561;28;20441;-68
2021/09/13 10:37:49;;;;;;;3.70;3.40;;;56.40;13.10;;;;;;5052560;28;20460;-68
2021/09/13 10:40:25;;;;;;;4.03;3.73;;;57.30;12.70;;;;;;5052942;28;20471;-67
2021/09/13 10:42:58;;;;;;;3.57;3.27;;;57.90;12.50;;;;;;5052646;28;20494;-68
2021/09/13 10:45:28;;;;;;;3.63;3.33;;;58.50;12.60;;;;;;5052746;28;20462;-68
2021/09/13 10:48:13;;;;;;;4.50;3.17;;;59.00;11.80;;;;;;5052545;28;20441;-68
2021/09/13 10:50:46;;;;;;;3.50;3.20;;;59.10;11.80;;;;;;5051677;28;20931;-67
2021/09/13 10:53:36;;;;;;;3.80;3.50;;;59.30;11.80;;;;;;5052338;28;20571;-69
2021/09/13 10:56:21;;;;;;;3.43;3.13;;;59.50;11.50;;;;;;5052565;28;20442;-68
2021/09/13 10:58:50;;;;;;;3.60;3.30;;;59.50;11.20;;;;;;5052435;28;20440;-68
2021/09/13 11:01:30;;;;;;;3.97;3.57;;;59.60;10.60;;;;;;5052310;28;20494;-68
2021/09/13 11:04:06;;;;;;;3.93;3.63;;;59.20;10.70;;;;;;5052235;28;20859;-68
2021/09/13 11:06:44;;;;;;;3.60;3.23;;;58.60;10.80;;;;;;5052421;28;20983;-68
2021/09/13 11:09:26;;;;;;;4.70;3.40;;;58.40;10.60;;;;;;5052630;28;20436;-68
2021/09/13 11:12:10;;;;;;;3.10;2.90;;;57.90;11.10;;;;;;5052440;28;20441;-68
2021/09/13 11:14:48;;;;;;;3.80;3.50;;;57.60;11.20;;;;;;5050683;28;21085;-68
2021/09/13 11:17:21;;;;;;;5.07;4.67;;;57.70;10.80;;;;;;5047601;28;20555;-69
2021/09/13 11:19:50;;;;;;;3.30;3.03;;;57.80;11.50;;;;;;5051938;28;20491;-68
2021/09/13 11:22:19;;;;;;;3.23;2.93;;;58.20;11.60;;;;;;5051508;28;20471;-69
2021/09/13 11:24:47;;;;;;;3.40;3.10;;;58.50;11.30;;;;;;5050135;28;20487;-68
2021/09/13 11:27:18;;;;;;;3.17;2.93;;;58.80;11.30;;;;;;5032193;28;20851;-67
2021/09/13 11:29:46;;;;;;;3.80;3.40;;;58.70;11.50;;;;;;5032011;28;20555;-68
2021/09/13 11:32:19;;;;;;;3.57;3.27;;;58.70;11.20;;;;;;5032170;28;20438;-68
2021/09/13 11:34:51;;;;;;;3.20;2.90;;;58.50;11.30;;;;;;5043821;28;20865;-68
2021/09/13 11:37:23;;;;;;;3.53;2.97;;;58.70;11.00;;;;;;5053322;28;20960;-69
2021/09/13 11:39:52;;;;;;;6.87;2.70;;;58.70;11.10;;;;;;5055643;28;20432;-68
2021/09/13 11:42:24;;;;;;;4.47;3.27;;;58.20;10.90;;;;;;5052161;28;20516;-69
2021/09/13 11:44:54;;;;;;;2.70;2.50;;;57.70;10.70;;;;;;5036115;28;20708;-69
2021/09/13 11:47:23;;;;;;;5.40;3.50;;;57.50;11.80;;;;;;5034346;28;20493;-68
2021/09/13 11:49:52;;;;;;;3.73;3.30;;;57.50;11.50;;;;;;5034407;28;20445;-70
2021/09/13 11:52:28;;;;;;;3.67;3.20;;;57.60;11.50;;;;;;5035201;28;20449;-68
2021/09/13 11:55:04;;;;;;;3.50;3.20;;;57.40;10.70;;;;;;5040526;28;20875;-69
2021/09/13 11:57:37;;;;;;;3.57;2.90;;;55.60;10.80;;;;;;5045069;28;20992;-68
2021/09/13 12:00:14;;;;;;;3.07;2.77;;;52.40;12.10;;;;;;5053379;28;20524;-68
2021/09/13 12:02:43;;;;;;;3.17;2.87;;;50.30;14.50;;;;;;5055365;28;20480;-67
2021/09/13 12:05:13;;;;;;;3.40;3.07;;;49.50;15.50;;;;;;5055112;28;20436;-69
2021/09/13 12:07:44;;;;;;;4.57;4.17;;;50.50;15.00;;;;;;5055250;28;20524;-68
2021/09/13 12:10:17;;;;;;;5.17;3.03;;;51.80;14.40;;;;;;5054387;28;20452;-68
2021/09/13 12:12:46;;;;;;;3.50;3.20;;;52.80;14.50;;;;;;5055430;28;20851;-68
2021/09/13 12:15:15;;;;;;;3.13;2.83;;;53.50;14.20;;;;;;5055086;28;20440;-68
2021/09/13 12:17:46;;;;;;;3.00;2.50;;;54.00;13.80;;;;;;5054707;28;21022;-68
2021/09/13 12:20:23;;;;;;;3.30;3.00;;;54.10;13.10;;;;;;5054881;28;20520;-68
2021/09/13 12:23:04;;;;;;;2.80;2.60;;;54.20;13.00;;;;;;5055101;28;20839;-68
2021/09/13 12:25:40;;;;;;;2.80;2.57;;;54.00;12.70;;;;;;5055053;28;20765;-68
2021/09/13 12:28:14;;;;;;;3.17;2.50;;;53.90;13.00;;;;;;5054718;28;20543;-68
2021/09/13 12:30:46;;;;;;;2.90;2.63;;;53.70;13.00;;;;;;5054672;28;20531;-67
2021/09/13 12:33:17;;;;;;;3.27;2.80;;;53.20;13.10;;;;;;5054779;28;20920;-68
2021/09/13 12:35:50;;;;;;;3.93;2.80;;;52.10;14.10;;;;;;5054815;28;20527;-68
2021/09/13 12:38:20;;;;;;;3.33;3.03;;;50.80;13.60;;;;;;5054491;28;20437;-69
2021/09/13 12:40:52;;;;;;;4.13;3.73;;;49.60;13.90;;;;;;5054752;28;20532;-72
2021/09/13 12:43:24;;;;;;;3.33;2.67;;;48.20;14.90;;;;;;5054711;28;20992;-69
2021/09/13 12:46:13;;;;;;;3.50;3.07;;;47.10;15.40;;;;;;5054829;28;20441;-70
2021/09/13 12:48:45;;;;;;;4.97;3.60;;;45.90;16.50;;;;;;5054772;28;20477;-69
2021/09/13 12:51:16;;;;;;;3.73;3.33;;;44.90;17.30;;;;;;5054528;28;20444;-69
2021/09/13 12:53:56;;;;;;;5.33;3.60;;;43.80;17.70;;;;;;5054399;28;20480;-69
2021/09/13 12:56:28;;;;;;;5.20;3.87;;;42.80;19.00;;;;;;5054404;28;20849;-69
2021/09/13 12:59:10;;;;;;;3.20;2.77;;;42.10;20.00;;;;;;5054606;28;20492;-69
2021/09/13 13:01:40;;;;;;;3.57;3.10;;;41.40;20.50;;;;;;5053834;28;20432;-69
2021/09/13 13:04:08;;;;;;;3.90;3.20;;;40.80;21.50;;;;;;5054155;28;20544;-69
2021/09/13 13:06:37;;;;;;;4.43;3.10;;;40.20;21.50;;;;;;5054307;28;20498;-69
2021/09/13 13:09:09;;;;;;;3.93;2.90;;;39.50;21.90;;;;;;5054143;28;20527;-69